Time;durP1;ratioP1;P1;durP2;ratioP2;P2;SDS_P1;SDS_P2;PMS_P1;PMS_P2;Temp;Humidity;BMP_temperature;BMP_pressure;BME280_temperature;BME280_humidity;BME280_pressure;Samples;Min_cycle;Max_cycle;Signal;HPM_P1;HPM_P2
2021/03/08 00:00:17;;;;;;;16.10;10.70;;;0.90;99.00;;;;;;5095118;28;20477;-67
2021/03/08 00:02:46;;;;;;;17.10;10.40;;;1.00;1.00;;;;;;5103342;28;20534;-68
2021/03/08 00:05:14;;;;;;;14.77;10.00;;;0.90;99.90;;;;;;5098064;28;21038;-67
2021/03/08 00:07:41;;;;;;;16.10;10.60;;;0.90;99.90;;;;;;5093574;28;20451;-67
2021/03/08 00:10:08;;;;;;;16.23;9.50;;;0.90;2.90;;;;;;5094508;28;20546;-67
2021/03/08 00:12:35;;;;;;;12.83;8.90;;;1.20;99.90;;;;;;5094556;28;20528;-67
2021/03/08 00:15:01;;;;;;;9.90;8.90;;;0.90;1.00;;;;;;5094124;28;20544;-68
2021/03/08 00:17:27;;;;;;;13.50;9.87;;;1.00;1.00;;;;;;5092950;28;20527;-69
2021/03/08 00:19:55;;;;;;;14.60;9.80;;;0.80;1.20;;;;;;5094550;28;20456;-67
2021/03/08 00:22:21;;;;;;;13.60;10.17;;;1.10;99.90;;;;;;5094658;28;20477;-68
2021/03/08 00:24:47;;;;;;;16.67;9.40;;;1.10;1.00;;;;;;5093842;28;20486;-68
2021/03/08 00:27:14;;;;;;;16.07;9.40;;;0.90;69.20;;;;;;5094200;28;20490;-68
2021/03/08 00:29:40;;;;;;;14.13;9.03;;;0.90;1.00;;;;;;5093763;28;20834;-68
2021/03/08 00:32:08;;;;;;;12.90;9.40;;;0.90;99.90;;;;;;5094106;28;20598;-68
2021/03/08 00:34:35;;;;;;;16.40;8.93;;;0.80;1.00;;;;;;5093821;28;20464;-68
2021/03/08 00:37:04;;;;;;;12.40;9.33;;;0.80;1.00;;;;;;5093843;28;20963;-68
2021/03/08 00:39:31;;;;;;;12.77;8.47;;;0.60;99.90;;;;;;5093429;28;20483;-68
2021/03/08 00:41:57;;;;;;;17.00;11.27;;;0.50;99.90;;;;;;5093640;28;20527;-68
2021/03/08 00:44:24;;;;;;;15.70;10.27;;;0.50;99.90;;;;;;5093947;28;20916;-67
2021/03/08 00:46:50;;;;;;;11.90;8.77;;;0.60;99.90;;;;;;5093068;28;20546;-68
2021/03/08 00:49:17;;;;;;;16.03;10.37;;;0.50;1.00;;;;;;5093764;28;20441;-68
2021/03/08 00:51:43;;;;;;;13.43;9.20;;;0.40;1.00;;;;;;5093664;28;20532;-68
2021/03/08 00:54:11;;;;;;;18.83;9.83;;;0.30;99.90;;;;;;5093929;28;20547;-67
2021/03/08 00:56:37;;;;;;;13.33;8.27;;;0.40;1.00;;;;;;5093214;28;20483;-68
2021/03/08 00:59:04;;;;;;;14.20;8.50;;;0.20;99.90;;;;;;5093111;28;20480;-67
2021/03/08 01:01:30;;;;;;;13.80;9.27;;;0.20;99.90;;;;;;5092591;28;20542;-67
2021/03/08 01:03:56;;;;;;;14.03;8.80;;;0.30;99.90;;;;;;5093209;28;20558;-68
2021/03/08 01:06:23;;;;;;;14.37;9.50;;;0.40;99.90;;;;;;5092902;28;20551;-68
2021/03/08 01:08:49;;;;;;;13.50;8.50;;;0.30;1.00;;;;;;5091619;28;20570;-67
2021/03/08 01:11:16;;;;;;;11.97;9.53;;;0.20;79.80;;;;;;5092141;28;20547;-68
2021/03/08 01:13:43;;;;;;;14.80;8.60;;;0.30;99.90;;;;;;5092523;28;20459;-67
2021/03/08 01:16:09;;;;;;;14.53;10.70;;;0.40;99.90;;;;;;5093402;28;20539;-67
2021/03/08 01:18:35;;;;;;;13.73;9.63;;;0.50;1.00;;;;;;5091770;28;20959;-67
2021/03/08 01:21:02;;;;;;;16.47;10.63;;;0.70;99.90;;;;;;5092593;28;20539;-67
2021/03/08 01:23:28;;;;;;;12.60;8.50;;;0.60;1.00;;;;;;5092669;28;20473;-68
2021/03/08 01:25:55;;;;;;;12.30;8.87;;;0.60;99.90;;;;;;5093288;28;20562;-68
2021/03/08 01:28:22;;;;;;;13.50;8.67;;;0.50;1.00;;;;;;5092865;28;20862;-67
2021/03/08 01:30:48;;;;;;;16.70;9.83;;;0.30;1.00;;;;;;5092834;28;20486;-67
2021/03/08 01:33:15;;;;;;;14.30;8.97;;;0.20;99.90;;;;;;5093134;28;20525;-67
2021/03/08 01:35:41;;;;;;;11.80;8.77;;;0.20;1.00;;;;;;5092656;28;20543;-67
2021/03/08 01:38:08;;;;;;;10.60;8.40;;;0.20;99.90;;;;;;5092446;28;20534;-67
2021/03/08 01:40:38;;;;;;;12.67;8.07;;;0.00;1.00;;;;;;5092938;28;20456;-67
2021/03/08 01:43:05;;;;;;;12.47;9.37;;;-0.10;99.90;;;;;;5092719;28;20525;-67
2021/03/08 01:45:33;;;;;;;13.40;8.97;;;0.10;99.90;;;;;;5092221;28;21068;-68
2021/03/08 01:47:59;;;;;;;14.70;10.03;;;0.00;99.90;;;;;;5092675;28;20531;-67
2021/03/08 01:50:31;;;;;;;12.47;10.00;;;0.40;19.50;;;;;;5092625;28;20447;-68
2021/03/08 01:52:59;;;;;;;13.37;8.87;;;0.40;99.90;;;;;;5093120;28;20963;-68
2021/03/08 01:55:26;;;;;;;12.63;9.30;;;0.50;1.00;;;;;;5092357;28;20461;-68
2021/03/08 01:57:53;;;;;;;15.63;9.47;;;0.50;99.90;;;;;;5091898;28;20459;-68
2021/03/08 02:00:21;;;;;;;10.97;8.97;;;0.60;1.00;;;;;;5092293;28;20503;-68
2021/03/08 02:02:48;;;;;;;15.20;8.80;;;0.60;1.00;;;;;;5091644;28;20536;-67
2021/03/08 02:05:18;;;;;;;14.50;9.57;;;0.30;1.00;;;;;;5092882;28;20575;-66
2021/03/08 02:07:44;;;;;;;10.43;7.87;;;0.70;1.00;;;;;;5091515;28;20978;-67
2021/03/08 02:10:12;;;;;;;12.00;8.30;;;0.80;99.90;;;;;;5092456;28;20530;-67
2021/03/08 02:12:50;;;;;;;10.87;7.50;;;0.90;1.00;;;;;;5091758;28;20520;-67
2021/03/08 02:15:26;;;;;;;11.20;8.23;;;0.80;1.00;;;;;;5092405;28;20536;-67
2021/03/08 02:18:06;;;;;;;12.50;8.93;;;0.70;1.00;;;;;;5091172;28;20571;-67
2021/03/08 02:20:56;;;;;;;12.23;8.47;;;0.70;1.00;;;;;;5084209;28;20587;-67
2021/03/08 02:23:55;;;;;;;10.47;7.60;;;0.60;1.00;;;;;;5083667;28;20871;-67
2021/03/08 02:26:35;;;;;;;11.07;7.50;;;0.60;1.00;;;;;;5023487;28;20484;-67
2021/03/08 02:29:45;;;;;;;14.80;8.90;;;0.30;1.00;;;;;;5091745;28;20441;-67
2021/03/08 02:32:14;;;;;;;11.40;7.70;;;0.30;38.10;;;;;;5092672;28;20513;-67
2021/03/08 02:34:45;;;;;;;13.83;8.63;;;0.20;1.00;;;;;;5096982;28;20479;-67
2021/03/08 02:37:18;;;;;;;14.00;8.67;;;0.80;99.90;;;;;;5096107;28;20531;-67
2021/03/08 02:39:48;;;;;;;13.93;8.30;;;1.00;99.90;;;;;;5091768;28;20543;-67
2021/03/08 02:42:21;;;;;;;12.30;9.00;;;1.00;99.90;;;;;;5092234;28;20531;-67
2021/03/08 02:44:50;;;;;;;10.90;7.80;;;1.00;1.00;;;;;;5082259;28;20473;-68
2021/03/08 02:47:20;;;;;;;12.97;7.67;;;0.90;99.90;;;;;;5091849;28;20449;-67
2021/03/08 02:49:50;;;;;;;11.43;8.20;;;0.80;99.90;;;;;;5091263;28;20529;-67
2021/03/08 02:52:20;;;;;;;11.73;7.30;;;0.70;1.00;;;;;;5091762;28;20479;-68
2021/03/08 02:54:52;;;;;;;12.00;8.47;;;0.60;99.90;;;;;;5091174;28;20532;-68
2021/03/08 02:57:25;;;;;;;12.20;9.23;;;0.30;99.90;;;;;;5078990;28;20532;-67
2021/03/08 02:59:54;;;;;;;13.17;8.20;;;0.10;1.00;;;;;;5089105;28;20970;-68
2021/03/08 03:02:23;;;;;;;14.70;9.00;;;0.20;1.00;;;;;;5091461;28;20487;-67
2021/03/08 03:04:50;;;;;;;16.17;9.13;;;0.10;1.00;;;;;;5090942;28;20904;-66
2021/03/08 03:07:18;;;;;;;10.80;8.80;;;0.00;1.00;;;;;;5091541;28;20525;-67
2021/03/08 03:09:46;;;;;;;10.20;7.40;;;-0.30;99.90;;;;;;5090734;28;21024;-66
2021/03/08 03:12:14;;;;;;;11.77;7.93;;;-0.20;99.90;;;;;;5090850;28;20479;-67
2021/03/08 03:14:42;;;;;;;9.67;7.23;;;0.00;1.00;;;;;;5088132;28;20456;-66
2021/03/08 03:17:11;;;;;;;11.30;7.90;;;0.00;1.00;;;;;;5091249;28;20504;-66
2021/03/08 03:19:41;;;;;;;13.17;7.37;;;-0.10;99.90;;;;;;5090636;28;20854;-66
2021/03/08 03:22:10;;;;;;;15.27;8.23;;;-0.20;99.90;;;;;;5086191;28;20905;-66
2021/03/08 03:24:37;;;;;;;10.80;8.40;;;-0.10;1.00;;;;;;5091096;28;20558;-68
2021/03/08 03:27:05;;;;;;;15.50;9.00;;;0.00;99.90;;;;;;5091455;28;20489;-67
2021/03/08 03:29:33;;;;;;;14.80;8.57;;;-0.20;99.90;;;;;;5090697;28;20486;-68
2021/03/08 03:32:01;;;;;;;8.73;6.93;;;-0.10;99.90;;;;;;5091183;28;20522;-66
2021/03/08 03:34:29;;;;;;;13.40;8.00;;;-0.20;99.90;;;;;;5090534;28;20463;-67
2021/03/08 03:36:59;;;;;;;10.80;8.47;;;-0.60;99.90;;;;;;5090900;28;20444;-66
2021/03/08 03:39:25;;;;;;;11.43;7.43;;;-0.20;1.00;;;;;;5091597;28;20555;-67
2021/03/08 03:41:53;;;;;;;11.77;8.10;;;-0.10;1.00;;;;;;5090616;28;20589;-67
2021/03/08 03:44:19;;;;;;;12.97;9.10;;;-0.30;1.00;;;;;;5091189;28;20557;-67
2021/03/08 03:46:47;;;;;;;10.93;8.33;;;-0.20;1.00;;;;;;5090220;28;20450;-67
2021/03/08 03:49:14;;;;;;;13.40;8.93;;;0.00;99.90;;;;;;5091712;28;20474;-67
2021/03/08 03:51:41;;;;;;;10.73;7.13;;;-0.10;1.00;;;;;;5090651;28;20447;-67
2021/03/08 03:54:09;;;;;;;8.93;7.47;;;-0.40;99.90;;;;;;5093555;28;20527;-68
2021/03/08 03:56:39;;;;;;;15.23;8.80;;;-0.40;1.00;;;;;;5092427;28;20981;-66
2021/03/08 03:59:16;;;;;;;10.60;8.23;;;-0.50;1.00;;;;;;5092465;28;20498;-67
2021/03/08 04:01:53;;;;;;;11.40;8.37;;;-0.60;1.00;;;;;;5090852;28;20518;-67
2021/03/08 04:04:22;;;;;;;12.53;7.87;;;-0.40;1.00;;;;;;5090950;28;20473;-66
2021/03/08 04:06:50;;;;;;;12.03;8.60;;;-0.50;1.00;;;;;;5090213;28;20550;-66
2021/03/08 04:09:20;;;;;;;14.40;8.77;;;-0.50;1.00;;;;;;5091636;28;20545;-66
2021/03/08 04:11:50;;;;;;;10.77;8.20;;;-0.50;99.90;;;;;;5092165;28;20447;-66
2021/03/08 04:14:19;;;;;;;12.30;9.70;;;-0.40;99.90;;;;;;5093384;28;20478;-68
2021/03/08 04:16:49;;;;;;;10.27;7.80;;;-0.50;1.00;;;;;;5092019;28;20478;-67
2021/03/08 04:19:19;;;;;;;11.53;8.67;;;-0.60;1.00;;;;;;5091985;28;21010;-66
2021/03/08 04:21:48;;;;;;;12.53;8.97;;;-0.80;99.90;;;;;;5090518;28;20458;-66
2021/03/08 04:24:18;;;;;;;12.90;8.93;;;-0.70;99.90;;;;;;5090681;28;20534;-66
2021/03/08 04:26:47;;;;;;;9.90;7.40;;;-0.90;99.90;;;;;;5090108;28;20529;-67
2021/03/08 04:29:14;;;;;;;14.33;8.03;;;-0.90;1.00;;;;;;5090812;28;20507;-67
2021/03/08 04:31:41;;;;;;;13.03;9.00;;;-0.90;1.00;;;;;;5090146;28;20472;-67
2021/03/08 04:34:08;;;;;;;12.17;8.57;;;-0.80;99.90;;;;;;5091097;28;20537;-67
2021/03/08 04:36:35;;;;;;;14.50;9.30;;;-1.00;1.00;;;;;;5090100;28;20477;-67
2021/03/08 04:39:03;;;;;;;14.00;9.37;;;-0.80;18.90;;;;;;5090826;28;20485;-66
2021/03/08 04:41:31;;;;;;;15.87;10.23;;;-0.80;1.00;;;;;;5091018;28;20520;-66
2021/03/08 04:44:00;;;;;;;12.67;8.70;;;-0.80;1.00;;;;;;5090509;28;20476;-66
2021/03/08 04:46:28;;;;;;;13.10;8.10;;;-0.90;1.00;;;;;;5093839;28;20444;-67
2021/03/08 04:48:55;;;;;;;13.53;8.60;;;-1.00;99.90;;;;;;5093139;28;21065;-67
2021/03/08 04:51:22;;;;;;;14.30;8.67;;;-1.00;1.00;;;;;;5094624;28;20863;-66
2021/03/08 04:53:49;;;;;;;14.50;9.30;;;-0.70;1.00;;;;;;5093797;28;20536;-66
2021/03/08 04:56:17;;;;;;;11.03;8.47;;;-0.80;99.90;;;;;;5094581;28;20843;-66
2021/03/08 04:58:44;;;;;;;12.40;7.33;;;-0.90;1.00;;;;;;5093170;28;20530;-67
2021/03/08 05:01:12;;;;;;;13.90;9.07;;;-0.90;1.00;;;;;;5094487;28;20528;-67
2021/03/08 05:03:41;;;;;;;13.43;8.63;;;-1.20;1.00;;;;;;5093151;28;20944;-67
2021/03/08 05:06:08;;;;;;;13.30;9.47;;;-1.10;99.90;;;;;;5094079;28;20595;-67
2021/03/08 05:08:38;;;;;;;14.27;8.97;;;-1.10;99.90;;;;;;5098907;28;20524;-65
2021/03/08 05:11:06;;;;;;;14.43;8.37;;;-0.90;1.00;;;;;;5095259;28;20525;-66
2021/03/08 05:13:34;;;;;;;16.80;9.77;;;-1.00;1.00;;;;;;5093533;28;20952;-67
2021/03/08 05:16:02;;;;;;;17.63;8.90;;;-1.00;12.20;;;;;;5093669;28;20979;-66
2021/03/08 05:18:31;;;;;;;15.17;9.17;;;-1.10;1.00;;;;;;5093431;28;20443;-66
2021/03/08 05:20:59;;;;;;;14.23;8.10;;;-1.30;99.90;;;;;;5093898;28;20843;-66
2021/03/08 05:23:26;;;;;;;14.97;9.63;;;-1.40;99.90;;;;;;5093990;28;20556;-66
2021/03/08 05:25:54;;;;;;;12.10;8.63;;;-1.40;1.00;;;;;;5092718;28;21183;-66
2021/03/08 05:28:20;;;;;;;21.50;10.67;;;-1.40;1.00;;;;;;5091718;28;20563;-66
2021/03/08 05:30:51;;;;;;;16.00;8.70;;;-1.50;1.00;;;;;;5093079;28;20441;-65
2021/03/08 05:33:21;;;;;;;12.90;9.33;;;-1.50;1.00;;;;;;5093979;28;20856;-65
2021/03/08 05:35:53;;;;;;;18.73;9.23;;;-1.40;1.00;;;;;;5092831;28;20444;-66
2021/03/08 05:38:21;;;;;;;10.90;8.30;;;-1.30;1.00;;;;;;5093158;28;20545;-65
2021/03/08 05:40:56;;;;;;;14.80;9.93;;;-1.40;1.00;;;;;;5093081;28;20456;-65
2021/03/08 05:43:26;;;;;;;18.03;9.60;;;-1.40;1.00;;;;;;5093589;28;20432;-65
2021/03/08 05:45:58;;;;;;;13.87;9.60;;;-1.30;99.90;;;;;;5092773;28;20880;-66
2021/03/08 05:49:03;;;;;;;14.93;9.20;;;-1.20;99.90;;;;;;5092647;28;20525;-66
2021/03/08 05:52:03;;;;;;;12.60;8.73;;;-1.20;99.90;;;;;;5093233;28;20527;-65
2021/03/08 05:54:48;;;;;;;12.13;9.20;;;-1.50;99.90;;;;;;5093258;28;20531;-65
2021/03/08 05:57:26;;;;;;;16.13;10.77;;;-1.50;1.00;;;;;;5079787;28;20524;-65
2021/03/08 06:00:26;;;;;;;15.03;9.17;;;-1.40;1.00;;;;;;5091811;28;21001;-65
2021/03/08 06:02:56;;;;;;;14.43;8.97;;;-1.40;1.00;;;;;;5065559;28;20994;-65
2021/03/08 06:06:19;;;;;;;14.77;9.17;;;-1.40;1.00;;;;;;5092521;28;20563;-66
2021/03/08 06:09:20;;;;;;;10.27;7.80;;;-1.50;1.00;;;;;;5033365;28;20852;-65
2021/03/08 06:11:52;;;;;;;13.50;9.97;;;-1.60;1.00;;;;;;5092374;28;20432;-66
2021/03/08 06:14:23;;;;;;;12.03;9.37;;;-1.60;1.00;;;;;;5092963;28;20444;-64
2021/03/08 06:16:51;;;;;;;14.40;10.13;;;-1.60;1.00;;;;;;5089347;28;20444;-66
2021/03/08 06:19:19;;;;;;;14.53;9.10;;;-1.60;1.00;;;;;;5093322;28;20524;-65
2021/03/08 06:21:48;;;;;;;17.23;10.40;;;-1.70;1.00;;;;;;5091934;28;20527;-66
2021/03/08 06:24:16;;;;;;;12.70;9.00;;;-1.50;1.00;;;;;;5092810;28;20563;-66
2021/03/08 06:26:45;;;;;;;17.00;10.57;;;-1.70;1.00;;;;;;5092139;28;20444;-66
2021/03/08 06:29:12;;;;;;;18.43;10.27;;;-1.70;1.00;;;;;;5093128;28;20440;-66
2021/03/08 06:31:40;;;;;;;14.80;9.07;;;-1.80;1.00;;;;;;5091588;28;20524;-66
2021/03/08 06:34:06;;;;;;;15.90;10.23;;;-1.80;1.00;;;;;;5092249;28;20913;-66
2021/03/08 06:36:34;;;;;;;16.00;10.20;;;-1.60;1.00;;;;;;5092233;28;21028;-66
2021/03/08 06:39:01;;;;;;;16.27;9.43;;;-1.40;1.00;;;;;;5092001;28;20540;-66
2021/03/08 06:41:27;;;;;;;22.13;11.70;;;-1.10;1.00;;;;;;5092044;28;20585;-66
2021/03/08 06:43:54;;;;;;;17.17;9.80;;;-0.90;1.00;;;;;;5091582;28;20579;-66
2021/03/08 06:46:21;;;;;;;17.43;10.47;;;-0.70;99.90;;;;;;5092342;28;20540;-66
2021/03/08 06:48:47;;;;;;;19.57;12.57;;;-0.90;99.90;;;;;;5091545;28;20541;-66
2021/03/08 06:51:15;;;;;;;17.97;11.20;;;-0.20;1.00;;;;;;5091632;28;20950;-66
2021/03/08 06:53:43;;;;;;;14.73;10.80;;;-0.10;1.00;;;;;;5091597;28;20519;-66
2021/03/08 06:56:14;;;;;;;21.73;11.63;;;-0.50;99.80;;;;;;5092123;28;20451;-64
2021/03/08 06:58:41;;;;;;;15.70;11.10;;;-0.20;1.00;;;;;;5091560;28;20522;-65
2021/03/08 07:01:29;;;;;;;14.80;9.80;;;-0.20;99.90;;;;;;5091293;28;20445;-65
2021/03/08 07:03:55;;;;;;;15.57;11.03;;;-0.40;1.00;;;;;;5091105;28;20441;-65
2021/03/08 07:06:22;;;;;;;14.73;10.00;;;0.00;1.00;;;;;;5091684;28;20486;-66
2021/03/08 07:08:48;;;;;;;15.10;10.43;;;-0.10;1.00;;;;;;5090030;28;20523;-66
2021/03/08 07:11:17;;;;;;;19.10;11.60;;;-0.20;1.00;;;;;;5091656;28;20451;-65
2021/03/08 07:13:43;;;;;;;20.40;11.90;;;0.60;1.00;;;;;;5091454;28;20442;-66
2021/03/08 07:16:10;;;;;;;16.07;11.10;;;0.40;1.00;;;;;;5091571;28;20538;-65
2021/03/08 07:18:37;;;;;;;18.23;12.13;;;0.20;1.00;;;;;;5091219;28;20529;-66
2021/03/08 07:21:20;;;;;;;16.20;10.43;;;0.10;1.00;;;;;;5091205;28;20515;-66
2021/03/08 07:23:49;;;;;;;15.93;10.53;;;0.30;99.90;;;;;;5090829;28;20555;-65
2021/03/08 07:26:17;;;;;;;16.97;11.23;;;0.10;1.00;;;;;;5091449;28;20586;-65
2021/03/08 07:28:44;;;;;;;16.60;10.43;;;0.20;99.90;;;;;;5090682;28;20520;-65
2021/03/08 07:31:34;;;;;;;15.97;10.77;;;0.30;95.20;;;;;;5090876;28;20474;-65
2021/03/08 07:34:02;;;;;;;17.17;11.30;;;0.40;99.90;;;;;;5090624;28;20439;-65
2021/03/08 07:36:29;;;;;;;18.57;13.43;;;0.60;1.00;;;;;;5090848;28;20450;-65
2021/03/08 07:38:56;;;;;;;19.30;12.17;;;1.00;99.90;;;;;;5090094;28;21092;-65
2021/03/08 07:41:24;;;;;;;20.67;12.80;;;1.20;1.00;;;;;;5091104;28;20477;-65
2021/03/08 07:43:51;;;;;;;18.30;12.43;;;1.30;1.00;;;;;;5090927;28;20817;-65
2021/03/08 07:46:28;;;;;;;17.80;12.00;;;1.50;1.00;;;;;;5091623;28;20520;-65
2021/03/08 07:48:55;;;;;;;14.67;12.27;;;1.80;99.90;;;;;;5090794;28;20545;-65
2021/03/08 07:51:23;;;;;;;19.63;12.87;;;1.90;99.90;;;;;;5091093;28;20527;-65
2021/03/08 07:53:59;;;;;;;20.33;11.03;;;2.00;1.00;;;;;;5090431;28;20532;-66
2021/03/08 07:56:25;;;;;;;22.97;13.03;;;2.00;41.70;;;;;;5090980;28;20449;-66
2021/03/08 07:58:53;;;;;;;21.90;12.80;;;2.20;99.90;;;;;;5090972;28;20530;-66
2021/03/08 08:01:21;;;;;;;18.40;13.10;;;2.10;99.90;;;;;;5090501;28;21027;-66
2021/03/08 08:03:47;;;;;;;16.30;12.10;;;2.20;1.00;;;;;;5090434;28;20529;-66
2021/03/08 08:06:19;;;;;;;19.93;12.60;;;2.10;1.00;;;;;;5091050;28;20552;-66
2021/03/08 08:08:49;;;;;;;16.23;11.73;;;2.30;81.50;;;;;;5090870;28;20443;-66
2021/03/08 08:11:17;;;;;;;21.43;12.30;;;2.20;1.00;;;;;;5090941;28;20447;-66
2021/03/08 08:13:45;;;;;;;23.53;13.13;;;2.50;1.00;;;;;;5090810;28;20439;-65
2021/03/08 08:16:13;;;;;;;17.67;13.37;;;2.40;99.90;;;;;;5091299;28;20473;-66
2021/03/08 08:18:41;;;;;;;19.23;12.60;;;2.20;99.90;;;;;;5090605;28;20530;-66
2021/03/08 08:21:12;;;;;;;19.93;12.27;;;2.40;99.90;;;;;;5093442;28;20554;-66
2021/03/08 08:23:41;;;;;;;22.13;12.63;;;2.40;99.90;;;;;;5094458;28;20491;-66
2021/03/08 08:26:10;;;;;;;20.57;12.97;;;2.60;1.00;;;;;;5094953;28;20530;-66
2021/03/08 08:28:39;;;;;;;23.73;13.13;;;2.60;1.00;;;;;;5094146;28;20567;-66
2021/03/08 08:31:06;;;;;;;28.10;13.10;;;2.70;1.00;;;;;;5094242;28;20887;-66
2021/03/08 08:33:33;;;;;;;15.93;11.80;;;2.60;1.00;;;;;;5094953;28;20451;-66
2021/03/08 08:36:11;;;;;;;19.47;13.50;;;;;;;;;;5094549;28;20807;-66
2021/03/08 08:38:38;;;;;;;21.53;14.57;;;2.80;1.00;;;;;;5093798;28;20479;-66
2021/03/08 08:41:19;;;;;;;26.70;12.63;;;;;;;;;;5093978;28;20526;-66
2021/03/08 08:43:46;;;;;;;19.20;12.07;;;;;;;;;;5093901;28;20483;-66
2021/03/08 08:46:23;;;;;;;24.27;13.13;;;;;;;;;;5094924;28;20926;-65
2021/03/08 08:49:03;;;;;;;17.30;11.93;;;;;;;;;;5093603;28;20451;-66
2021/03/08 08:51:46;;;;;;;18.50;12.80;;;2.90;1.00;;;;;;5094155;28;20442;-66
2021/03/08 08:54:51;;;;;;;17.30;12.60;;;3.30;99.90;;;;;;5094687;28;20447;-65
2021/03/08 08:57:20;;;;;;;16.93;11.33;;;3.30;99.90;;;;;;5079883;28;20460;-66
2021/03/08 08:59:50;;;;;;;19.30;12.00;;;3.30;99.90;;;;;;5093372;28;20459;-66
2021/03/08 09:02:32;;;;;;;19.53;11.37;;;3.30;99.90;;;;;;5093908;28;20445;-66
2021/03/08 09:04:59;;;;;;;13.43;10.70;;;3.60;99.90;;;;;;5093286;28;20865;-66
2021/03/08 09:07:27;;;;;;;14.00;10.70;;;3.50;99.90;;;;;;5093967;28;20443;-65
2021/03/08 09:09:59;;;;;;;17.07;12.57;;;3.70;92.80;;;;;;5093156;28;20553;-66
2021/03/08 09:12:34;;;;;;;15.80;11.40;;;3.60;66.30;;;;;;5093438;28;20483;-66
2021/03/08 09:15:01;;;;;;;16.93;12.50;;;3.70;50.40;;;;;;5093533;28;20868;-66
2021/03/08 09:17:29;;;;;;;17.37;13.17;;;3.60;6.20;;;;;;5093977;28;20449;-66
2021/03/08 09:20:21;;;;;;;16.10;12.30;;;3.80;1.00;;;;;;5093440;28;20490;-65
2021/03/08 09:22:49;;;;;;;15.87;11.80;;;3.70;1.00;;;;;;5092555;28;20508;-66
2021/03/08 09:25:27;;;;;;;16.40;11.50;;;3.80;1.00;;;;;;5094059;28;20555;-65
2021/03/08 09:28:04;;;;;;;17.10;12.23;;;3.90;1.00;;;;;;5093289;28;20437;-66
2021/03/08 09:30:32;;;;;;;15.40;11.70;;;3.90;1.00;;;;;;5093603;28;20467;-66
2021/03/08 09:33:01;;;;;;;15.43;12.03;;;4.00;1.00;;;;;;5092326;28;20539;-65
2021/03/08 09:35:30;;;;;;;13.93;10.70;;;4.30;1.00;;;;;;5094471;28;20983;-66
2021/03/08 09:37:59;;;;;;;16.40;12.00;;;4.30;1.00;;;;;;5094844;28;20765;-65
2021/03/08 09:40:27;;;;;;;15.73;10.97;;;4.20;1.00;;;;;;5094819;28;20514;-64
2021/03/08 09:42:55;;;;;;;16.53;11.20;;;4.20;1.00;;;;;;5093877;28;20933;-64
2021/03/08 09:45:25;;;;;;;23.40;10.70;;;4.30;1.00;;;;;;5093472;28;20902;-64
2021/03/08 09:47:53;;;;;;;14.93;10.47;;;4.10;1.00;;;;;;5093291;28;20493;-64
2021/03/08 09:50:26;;;;;;;22.13;11.20;;;4.30;1.00;;;;;;5093409;28;20440;-64
2021/03/08 09:52:57;;;;;;;16.83;10.30;;;4.50;1.00;;;;;;5092648;28;20524;-64
2021/03/08 09:55:26;;;;;;;17.60;11.50;;;4.50;1.00;;;;;;5094253;28;20447;-64
2021/03/08 09:57:53;;;;;;;11.87;9.97;;;4.60;1.00;;;;;;5096591;28;20481;-64
2021/03/08 10:00:22;;;;;;;14.20;10.70;;;5.00;1.00;;;;;;5099139;28;20461;-64
2021/03/08 10:02:58;;;;;;;11.37;9.50;;;5.20;1.00;;;;;;5093106;28;20474;-64
2021/03/08 10:05:37;;;;;;;14.73;10.40;;;5.30;99.90;;;;;;5093010;28;20860;-64
2021/03/08 10:08:05;;;;;;;15.47;10.93;;;5.30;99.90;;;;;;5092699;28;20576;-64
2021/03/08 10:10:31;;;;;;;12.80;10.90;;;5.40;99.90;;;;;;5093159;28;20540;-64
2021/03/08 10:12:58;;;;;;;16.30;10.30;;;5.30;99.90;;;;;;5091925;28;20546;-64
2021/03/08 10:15:25;;;;;;;13.37;10.00;;;5.00;99.90;;;;;;5092799;28;20452;-65
2021/03/08 10:17:56;;;;;;;12.63;10.10;;;5.10;99.90;;;;;;5092359;28;20535;-64
2021/03/08 10:20:22;;;;;;;16.13;10.93;;;5.20;99.90;;;;;;5093134;28;20830;-64
2021/03/08 10:22:49;;;;;;;12.17;10.23;;;5.40;99.90;;;;;;5091910;28;20459;-65
2021/03/08 10:25:23;;;;;;;11.40;9.43;;;5.20;99.90;;;;;;5092948;28;20523;-66
2021/03/08 10:27:54;;;;;;;12.60;10.20;;;5.40;99.90;;;;;;5091779;28;20444;-65
2021/03/08 10:30:21;;;;;;;12.70;10.57;;;5.30;99.90;;;;;;5092396;28;20986;-65
2021/03/08 10:32:51;;;;;;;13.07;9.93;;;5.40;99.90;;;;;;5091204;28;20534;-65
2021/03/08 10:35:19;;;;;;;12.23;8.60;;;5.60;99.90;;;;;;5092807;28;20541;-65
2021/03/08 10:37:46;;;;;;;13.40;9.87;;;5.70;99.90;;;;;;5092054;28;20487;-65
2021/03/08 10:40:17;;;;;;;11.77;9.37;;;5.70;99.90;;;;;;5092648;28;20484;-65
2021/03/08 10:42:44;;;;;;;10.87;8.17;;;5.80;99.90;;;;;;5091509;28;20452;-66
2021/03/08 10:45:12;;;;;;;11.60;9.80;;;5.80;99.90;;;;;;5092261;28;20582;-65
2021/03/08 10:47:39;;;;;;;11.57;9.13;;;5.80;99.90;;;;;;5091736;28;20484;-65
2021/03/08 10:50:08;;;;;;;15.80;8.07;;;6.10;99.90;;;;;;5091896;28;20451;-65
2021/03/08 10:52:34;;;;;;;11.70;8.50;;;6.00;99.90;;;;;;5091756;28;20878;-65
2021/03/08 10:55:01;;;;;;;12.47;9.37;;;6.00;99.90;;;;;;5091207;28;20463;-65
2021/03/08 10:57:28;;;;;;;13.30;9.50;;;6.00;99.90;;;;;;5091927;28;20927;-65
2021/03/08 10:59:55;;;;;;;12.03;9.07;;;6.20;99.90;;;;;;5091531;28;20472;-66
2021/03/08 11:02:22;;;;;;;17.17;9.33;;;6.40;99.90;;;;;;5091772;28;20562;-65
2021/03/08 11:04:50;;;;;;;13.73;8.33;;;6.30;99.90;;;;;;5091325;28;20902;-66
2021/03/08 11:07:30;;;;;;;10.33;8.30;;;6.60;99.90;;;;;;5091702;28;20473;-65
2021/03/08 11:09:56;;;;;;;8.93;7.97;;;6.60;99.90;;;;;;5091262;28;20490;-65
2021/03/08 11:12:24;;;;;;;7.13;6.40;;;6.80;99.90;;;;;;5091545;28;20498;-65
2021/03/08 11:14:52;;;;;;;11.63;7.30;;;6.70;86.60;;;;;;5091231;28;20541;-65
2021/03/08 11:17:31;;;;;;;11.70;7.37;;;6.60;92.10;;;;;;5091715;28;20448;-65
2021/03/08 11:20:06;;;;;;;8.83;6.93;;;6.60;82.00;;;;;;5091318;28;20712;-65
2021/03/08 11:22:49;;;;;;;12.60;8.53;;;6.70;84.50;;;;;;5091058;28;20523;-64
2021/03/08 11:25:35;;;;;;;8.87;7.03;;;7.00;59.80;;;;;;5091651;28;20476;-66
2021/03/08 11:28:03;;;;;;;11.07;7.80;;;7.20;64.10;;;;;;5091020;28;20526;-64
2021/03/08 11:30:30;;;;;;;12.10;7.13;;;7.20;52.20;;;;;;5091464;28;20800;-67
2021/03/08 11:32:58;;;;;;;10.47;8.00;;;7.20;51.70;;;;;;5090549;28;20986;-64
2021/03/08 11:35:27;;;;;;;10.60;7.90;;;7.30;48.20;;;;;;5091583;28;20469;-65
2021/03/08 11:37:58;;;;;;;9.80;8.20;;;7.40;46.40;;;;;;5090338;28;20476;-65
2021/03/08 11:40:26;;;;;;;11.73;8.87;;;7.20;42.80;;;;;;5090860;28;20524;-65
2021/03/08 11:42:53;;;;;;;9.90;8.00;;;7.20;46.30;;;;;;5090424;28;20476;-65
2021/03/08 11:45:20;;;;;;;8.57;7.70;;;7.30;46.90;;;;;;5091412;28;20472;-65
2021/03/08 11:47:50;;;;;;;8.80;7.87;;;7.20;42.70;;;;;;5090824;28;20484;-65
2021/03/08 11:50:17;;;;;;;11.87;8.40;;;7.20;40.90;;;;;;5091507;28;20525;-65
2021/03/08 11:52:43;;;;;;;11.20;7.97;;;7.30;33.90;;;;;;5090510;28;20441;-65
2021/03/08 11:55:12;;;;;;;10.10;8.87;;;7.40;31.80;;;;;;5091866;28;20448;-65
2021/03/08 11:57:41;;;;;;;11.30;9.17;;;7.50;32.10;;;;;;5094632;28;20527;-66
2021/03/08 12:00:08;;;;;;;14.30;9.10;;;7.60;33.30;;;;;;5095552;28;20436;-65
2021/03/08 12:02:35;;;;;;;11.87;9.07;;;7.70;29.90;;;;;;5095373;28;20448;-65
2021/03/08 12:05:01;;;;;;;9.90;7.80;;;7.80;27.40;;;;;;5094401;28;20568;-65
2021/03/08 12:07:27;;;;;;;10.93;8.13;;;8.00;21.70;;;;;;5095347;28;20832;-66
2021/03/08 12:09:54;;;;;;;10.73;7.43;;;8.10;21.80;;;;;;5094864;28;20493;-66
2021/03/08 12:12:21;;;;;;;10.33;8.47;;;8.10;19.30;;;;;;5094523;28;20920;-66
2021/03/08 12:14:48;;;;;;;10.90;8.50;;;7.90;13.30;;;;;;5094454;28;20471;-66
2021/03/08 12:17:14;;;;;;;10.97;8.10;;;7.70;8.30;;;;;;5095376;28;20565;-66
2021/03/08 12:19:40;;;;;;;8.90;7.93;;;7.80;7.30;;;;;;5094207;28;20928;-66
2021/03/08 12:22:07;;;;;;;13.67;8.63;;;7.60;1.50;;;;;;5094786;28;20476;-66
2021/03/08 12:24:33;;;;;;;13.00;8.23;;;8.00;5.30;;;;;;5094836;28;20527;-66
2021/03/08 12:27:00;;;;;;;17.80;10.00;;;7.90;2.70;;;;;;5094336;28;20971;-66
2021/03/08 12:29:27;;;;;;;10.17;7.77;;;8.00;3.50;;;;;;5095003;28;20531;-66
2021/03/08 12:31:53;;;;;;;9.80;7.90;;;8.30;2.90;;;;;;5093665;28;20447;-66
2021/03/08 12:34:20;;;;;;;11.90;7.80;;;8.40;1.00;;;;;;5094568;28;20488;-66
2021/03/08 12:36:46;;;;;;;8.67;7.60;;;8.30;1.00;;;;;;5093505;28;20498;-64
2021/03/08 12:39:13;;;;;;;10.53;7.67;;;8.30;1.00;;;;;;5094616;28;20563;-66
2021/03/08 12:41:39;;;;;;;11.70;8.57;;;8.50;1.00;;;;;;5093972;28;20476;-65
2021/03/08 12:44:07;;;;;;;10.90;8.67;;;8.50;1.00;;;;;;5094739;28;20978;-65
2021/03/08 12:46:34;;;;;;;12.60;7.97;;;8.50;1.00;;;;;;5094585;28;20877;-65
2021/03/08 12:49:01;;;;;;;9.43;8.00;;;8.40;1.00;;;;;;5093993;28;20487;-65
2021/03/08 12:51:27;;;;;;;9.43;7.37;;;8.40;1.00;;;;;;5094110;28;20502;-65
2021/03/08 12:53:54;;;;;;;10.03;8.17;;;8.60;1.00;;;;;;5093777;28;20475;-65
2021/03/08 12:56:20;;;;;;;9.90;8.17;;;8.80;1.00;;;;;;5094053;28;20463;-65
2021/03/08 12:58:46;;;;;;;10.57;9.50;;;8.80;1.00;;;;;;5093986;28;20486;-65
2021/03/08 13:01:13;;;;;;;9.03;7.83;;;9.00;1.00;;;;;;5094343;28;20444;-65